createdAt,value
2023-05-14T00:00:29.458Z,7.00
2023-05-14T00:02:56.443Z,7.03
2023-05-14T00:05:23.444Z,6.90
2023-05-14T00:07:50.372Z,7.15
2023-05-14T00:10:19.152Z,7.33
2023-05-14T00:12:46.044Z,7.30
2023-05-14T00:15:12.779Z,6.50
2023-05-14T00:17:39.605Z,6.70
2023-05-14T00:20:07.369Z,7.13
2023-05-14T00:22:34.505Z,7.10
2023-05-14T00:25:01.273Z,7.15
2023-05-14T00:27:27.958Z,6.90
2023-05-14T00:29:54.739Z,7.60
2023-05-14T00:32:21.518Z,6.97
2023-05-14T00:34:48.311Z,7.23
2023-05-14T00:37:15.033Z,7.15
2023-05-14T00:39:41.740Z,7.57
2023-05-14T00:42:08.514Z,7.15
2023-05-14T00:44:35.918Z,7.50
2023-05-14T00:47:02.729Z,7.43
2023-05-14T00:49:29.536Z,7.15
2023-05-14T00:51:59.029Z,7.25
2023-05-14T00:54:26.142Z,7.13
2023-05-14T00:56:52.899Z,6.95
2023-05-14T00:59:19.634Z,7.20
2023-05-14T01:01:46.395Z,7.43
2023-05-14T01:04:13.095Z,7.22
2023-05-14T01:07:08.915Z,7.95
2023-05-14T01:10:03.098Z,7.25
2023-05-14T01:12:51.394Z,8.07
2023-05-14T01:15:21.625Z,7.65
2023-05-14T01:18:08.637Z,7.28
2023-05-14T01:20:36.096Z,7.97
2023-05-14T01:23:03.331Z,8.00
2023-05-14T01:25:30.913Z,7.50
2023-05-14T01:28:09.334Z,7.97
2023-05-14T01:30:54.674Z,7.60
2023-05-14T01:33:21.973Z,8.13
2023-05-14T01:35:49.064Z,8.10
2023-05-14T01:38:18.312Z,8.07
2023-05-14T01:40:45.817Z,8.30
2023-05-14T01:43:12.641Z,8.00
2023-05-14T01:45:39.500Z,8.27
2023-05-14T01:48:06.572Z,8.05
2023-05-14T01:50:33.448Z,8.23
2023-05-14T01:53:00.260Z,8.40
2023-05-14T01:55:27.011Z,8.38
2023-05-14T01:57:53.936Z,9.20
2023-05-14T02:00:22.306Z,9.05
2023-05-14T02:02:49.186Z,9.27
2023-05-14T02:05:15.964Z,9.35
2023-05-14T02:07:42.669Z,9.93
2023-05-14T02:10:09.951Z,10.10
2023-05-14T02:12:36.816Z,9.35
2023-05-14T02:15:04.131Z,9.90
2023-05-14T02:17:30.932Z,9.48
2023-05-14T02:19:57.736Z,9.55
2023-05-14T02:22:24.475Z,9.43
2023-05-14T02:24:51.588Z,9.23
2023-05-14T02:27:18.515Z,9.63
2023-05-14T02:29:45.302Z,8.95
2023-05-14T02:32:12.015Z,9.90
2023-05-14T02:34:38.820Z,9.85
2023-05-14T02:37:05.678Z,10.20
2023-05-14T02:39:32.443Z,9.13
2023-05-14T02:41:59.294Z,9.85
2023-05-14T02:44:26.052Z,9.85
2023-05-14T02:46:52.879Z,9.40
2023-05-14T02:49:19.660Z,9.30
2023-05-14T02:51:46.381Z,9.67
2023-05-14T02:54:13.181Z,9.10
2023-05-14T02:56:39.893Z,9.52
2023-05-14T02:59:06.734Z,8.85
2023-05-14T03:01:33.979Z,10.07
2023-05-14T03:04:01.047Z,9.67
2023-05-14T03:06:27.856Z,10.07
2023-05-14T03:08:54.616Z,9.68
2023-05-14T03:11:21.821Z,10.10
2023-05-14T03:13:48.636Z,9.70
2023-05-14T03:16:15.676Z,9.60
2023-05-14T03:18:42.507Z,9.15
2023-05-14T03:21:09.312Z,10.02
2023-05-14T03:23:36.275Z,9.80
2023-05-14T03:26:03.860Z,9.40
2023-05-14T03:28:30.841Z,8.97
2023-05-14T03:30:57.661Z,9.23
2023-05-14T03:33:24.557Z,9.73
2023-05-14T03:35:51.937Z,9.45
2023-05-14T03:38:18.692Z,9.48
2023-05-14T03:40:45.637Z,8.47
2023-05-14T03:43:12.399Z,8.85
2023-05-14T03:45:39.277Z,8.60
2023-05-14T03:48:06.546Z,9.10
2023-05-14T03:50:33.435Z,9.23
2023-05-14T03:53:00.270Z,8.47
2023-05-14T03:55:27.044Z,8.20
2023-05-14T03:57:53.772Z,8.45
2023-05-14T04:00:21.563Z,8.23
2023-05-14T04:02:48.561Z,7.93
2023-05-14T04:05:15.442Z,8.10
2023-05-14T04:07:42.181Z,8.00
2023-05-14T04:10:09.406Z,8.10
2023-05-14T04:12:36.176Z,8.00
2023-05-14T04:15:03.032Z,8.00
2023-05-14T04:17:29.853Z,7.80
2023-05-14T04:19:56.638Z,7.95
2023-05-14T04:22:23.402Z,7.72
2023-05-14T04:24:50.255Z,7.55
2023-05-14T04:27:21.252Z,7.82
2023-05-14T04:29:48.956Z,7.50
2023-05-14T04:32:15.784Z,6.90
2023-05-14T04:34:42.536Z,7.50
2023-05-14T04:37:09.295Z,7.97
2023-05-14T04:39:36.628Z,7.00
2023-05-14T04:42:03.450Z,8.00
2023-05-14T04:44:30.233Z,7.35
2023-05-14T04:46:57.252Z,7.40
2023-05-14T04:49:24.039Z,7.55
2023-05-14T04:51:50.812Z,7.70
2023-05-14T04:54:17.571Z,7.50
2023-05-14T04:56:44.491Z,7.28
2023-05-14T04:59:11.340Z,7.32
2023-05-14T05:01:38.249Z,6.97
2023-05-14T05:04:05.210Z,7.07
2023-05-14T05:06:32.516Z,7.53
2023-05-14T05:09:01.890Z,6.80
2023-05-14T05:11:28.934Z,7.30
2023-05-14T05:13:55.679Z,7.00
2023-05-14T05:16:22.935Z,7.85
2023-05-14T05:18:49.906Z,7.00
2023-05-14T05:21:16.739Z,6.90
2023-05-14T05:23:43.485Z,6.47
2023-05-14T05:26:10.284Z,7.25
2023-05-14T05:28:37.024Z,7.68
2023-05-14T05:31:03.843Z,7.40
2023-05-14T05:33:30.801Z,6.30
2023-05-14T05:35:57.527Z,7.00
2023-05-14T05:38:24.310Z,6.55
2023-05-14T05:40:51.227Z,6.85
2023-05-14T05:43:18.116Z,6.70
2023-05-14T05:45:46.096Z,6.35
2023-05-14T05:48:12.852Z,6.43
2023-05-14T05:50:39.597Z,6.30
2023-05-14T05:53:06.383Z,6.18
2023-05-14T05:55:33.160Z,5.80
2023-05-14T05:57:59.966Z,6.10
2023-05-14T06:00:26.962Z,6.22
2023-05-14T06:02:53.996Z,6.25
2023-05-14T06:05:20.916Z,6.32
2023-05-14T06:07:47.761Z,6.17
2023-05-14T06:10:14.525Z,6.45
2023-05-14T06:12:41.324Z,6.13
2023-05-14T06:15:08.520Z,6.38
2023-05-14T06:17:35.356Z,6.22
2023-05-14T06:20:02.107Z,6.33
2023-05-14T06:22:28.861Z,6.60
2023-05-14T06:24:55.570Z,6.18
2023-05-14T06:27:22.338Z,6.43
2023-05-14T06:29:49.058Z,6.05
2023-05-14T06:32:17.614Z,6.40
2023-05-14T06:34:44.459Z,6.25
2023-05-14T06:37:11.212Z,6.32
2023-05-14T06:39:38.142Z,5.70
2023-05-14T06:42:05.286Z,5.80
2023-05-14T06:44:32.045Z,6.30
2023-05-14T06:46:58.757Z,5.80
2023-05-14T06:49:25.520Z,5.88
2023-05-14T06:51:52.375Z,6.30
2023-05-14T06:54:20.597Z,5.97
2023-05-14T06:56:47.797Z,6.40
2023-05-14T06:59:14.523Z,6.22
2023-05-14T07:01:41.303Z,6.18
2023-05-14T07:04:08.156Z,5.82
2023-05-14T07:06:34.990Z,5.75
2023-05-14T07:09:01.981Z,6.13
2023-05-14T07:11:28.764Z,6.20
2023-05-14T07:13:55.636Z,6.15
2023-05-14T07:16:22.403Z,5.38
2023-05-14T07:18:49.332Z,5.30
2023-05-14T07:21:16.464Z,5.83
2023-05-14T07:23:43.194Z,5.88
2023-05-14T07:26:09.977Z,5.35
2023-05-14T07:28:36.738Z,5.55
2023-05-14T07:31:09.056Z,5.18
2023-05-14T07:33:36.598Z,5.70
2023-05-14T07:36:03.500Z,4.80
2023-05-14T07:38:30.310Z,5.05
2023-05-14T07:40:57.139Z,6.20
2023-05-14T07:43:23.937Z,6.00
2023-05-14T07:45:50.699Z,5.83
2023-05-14T07:48:17.511Z,5.80
2023-05-14T07:50:44.379Z,5.43
2023-05-14T07:53:11.137Z,5.43
2023-05-14T07:55:38.002Z,5.47
2023-05-14T07:58:04.800Z,5.33
2023-05-14T08:00:31.596Z,5.00
2023-05-14T08:02:58.534Z,5.85
2023-05-14T08:05:26.631Z,5.35
2023-05-14T08:07:53.391Z,5.57
2023-05-14T08:10:20.275Z,5.23
2023-05-14T08:12:47.169Z,5.80
2023-05-14T08:15:14.098Z,5.40
2023-05-14T08:17:41.138Z,5.78
2023-05-14T08:20:09.185Z,5.65
2023-05-14T08:22:36.056Z,7.43
2023-05-14T08:25:03.922Z,6.80
2023-05-14T08:27:30.792Z,6.05
2023-05-14T08:29:57.753Z,5.40
2023-05-14T08:32:24.531Z,5.60
2023-05-14T08:34:51.989Z,5.30
2023-05-14T08:37:18.917Z,5.53
2023-05-14T08:39:45.677Z,5.53
2023-05-14T08:42:13.086Z,5.60
2023-05-14T08:44:45.804Z,7.43
2023-05-14T08:47:12.874Z,6.17
2023-05-14T08:49:43.082Z,5.18
2023-05-14T08:52:09.992Z,4.22
2023-05-14T08:54:36.796Z,4.25
2023-05-14T08:57:04.607Z,5.18
2023-05-14T08:59:31.474Z,4.60
2023-05-14T09:02:01.564Z,5.10
2023-05-14T09:04:29.697Z,5.65
2023-05-14T09:06:56.562Z,5.10
2023-05-14T09:09:23.503Z,5.47
2023-05-14T09:11:55.713Z,5.23
2023-05-14T09:14:23.358Z,4.05
2023-05-14T09:16:50.776Z,8.43
2023-05-14T09:19:19.492Z,5.70
2023-05-14T09:21:46.708Z,4.90
2023-05-14T09:24:21.331Z,4.53
2023-05-14T09:26:57.070Z,4.72
2023-05-14T09:29:27.462Z,6.00
2023-05-14T09:31:54.909Z,4.45
2023-05-14T09:34:25.907Z,7.32
2023-05-14T09:37:03.064Z,6.87
2023-05-14T09:39:29.961Z,10.07
2023-05-14T09:41:57.170Z,5.75
2023-05-14T09:44:24.013Z,5.07
2023-05-14T09:46:51.268Z,4.68
2023-05-14T09:49:18.213Z,4.37
2023-05-14T09:51:45.021Z,4.32
2023-05-14T09:54:12.078Z,6.72
2023-05-14T09:56:39.716Z,4.45
2023-05-14T09:59:06.540Z,4.80
2023-05-14T10:01:33.628Z,6.00
2023-05-14T10:04:00.625Z,6.35
2023-05-14T10:06:28.689Z,6.20
2023-05-14T10:08:56.844Z,4.88
2023-05-14T10:11:28.057Z,5.22
2023-05-14T10:14:39.985Z,6.23
2023-05-14T10:17:06.929Z,5.03
2023-05-14T10:19:35.244Z,4.93
2023-05-14T10:22:07.219Z,6.82
2023-05-14T10:24:34.094Z,5.57
2023-05-14T10:27:01.456Z,5.57
2023-05-14T10:29:34.989Z,4.55
2023-05-14T10:32:08.645Z,6.07
2023-05-14T10:34:40.766Z,5.35
2023-05-14T10:37:10.182Z,5.38
2023-05-14T10:39:59.189Z,5.10
2023-05-14T10:42:32.813Z,5.25
2023-05-14T10:45:07.387Z,5.35
2023-05-14T10:47:42.610Z,6.07
2023-05-14T10:50:11.960Z,5.13
2023-05-14T10:52:38.811Z,6.13
2023-05-14T10:55:10.359Z,6.03
2023-05-14T10:57:39.641Z,5.95
2023-05-14T11:00:09.100Z,5.97
2023-05-14T11:02:37.301Z,6.18
2023-05-14T11:05:05.441Z,6.20
2023-05-14T11:07:36.573Z,7.03
2023-05-14T11:10:07.531Z,6.88
2023-05-14T11:12:38.903Z,7.35
2023-05-14T11:15:09.822Z,8.10
2023-05-14T11:17:37.193Z,9.00
2023-05-14T11:20:05.749Z,7.95
2023-05-14T11:22:32.652Z,8.25
2023-05-14T11:24:59.405Z,8.40
2023-05-14T11:27:26.484Z,8.13
2023-05-14T11:29:53.313Z,8.50
2023-05-14T11:32:20.385Z,7.90
2023-05-14T11:34:47.283Z,8.88
2023-05-14T11:37:15.151Z,6.55
2023-05-14T11:39:49.701Z,7.25
2023-05-14T11:42:18.781Z,7.57
2023-05-14T11:44:52.242Z,6.47
2023-05-14T11:47:20.335Z,5.88
2023-05-14T11:49:47.314Z,5.57
2023-05-14T11:52:14.868Z,5.82
2023-05-14T11:54:42.720Z,6.27
2023-05-14T11:57:19.538Z,5.28
2023-05-14T11:59:46.876Z,5.72
2023-05-14T12:02:18.424Z,6.35
2023-05-14T12:04:46.011Z,6.72
2023-05-14T12:07:15.046Z,6.83
2023-05-14T12:09:49.967Z,6.63
2023-05-14T12:12:22.896Z,6.60
2023-05-14T12:14:50.167Z,7.15
2023-05-14T12:17:21.005Z,7.18
2023-05-14T12:19:49.312Z,7.73
2023-05-14T12:22:18.971Z,7.20
2023-05-14T12:24:58.702Z,8.20
2023-05-14T12:27:29.810Z,8.02
2023-05-14T12:30:19.966Z,7.40
2023-05-14T12:32:51.735Z,7.67
2023-05-14T12:35:19.033Z,6.90
2023-05-14T12:37:45.839Z,6.00
2023-05-14T12:40:12.717Z,5.18
2023-05-14T12:42:39.513Z,5.32
2023-05-14T12:45:08.542Z,5.93
2023-05-14T12:47:36.522Z,5.38
2023-05-14T12:50:03.619Z,6.35
2023-05-14T12:52:37.804Z,6.50
2023-05-14T12:55:07.626Z,6.90
2023-05-14T12:57:35.748Z,6.40
2023-05-14T13:00:06.457Z,6.38
2023-05-14T13:02:33.352Z,6.63
2023-05-14T13:05:10.369Z,6.75
2023-05-14T13:07:37.451Z,6.30
2023-05-14T13:10:05.940Z,5.70
2023-05-14T13:12:33.061Z,6.40
2023-05-14T13:14:59.944Z,6.25
2023-05-14T13:17:26.902Z,5.45
2023-05-14T13:19:53.920Z,5.72
2023-05-14T13:22:20.690Z,5.77
2023-05-14T13:24:47.463Z,6.43
2023-05-14T13:27:14.238Z,6.53
2023-05-14T13:29:41.553Z,6.63
2023-05-14T13:32:08.507Z,5.60
2023-05-14T13:34:35.353Z,6.40
2023-05-14T13:37:02.124Z,6.00
2023-05-14T13:39:28.821Z,5.97
2023-05-14T13:41:56.916Z,4.72
2023-05-14T13:44:24.333Z,5.10
2023-05-14T13:46:51.269Z,4.97
2023-05-14T13:49:18.073Z,4.15
2023-05-14T13:51:44.905Z,3.95
2023-05-14T13:54:11.748Z,3.78
2023-05-14T13:56:38.558Z,3.63
2023-05-14T13:59:06.055Z,3.87
2023-05-14T14:01:32.936Z,3.28
2023-05-14T14:03:59.738Z,3.75
2023-05-14T14:06:27.577Z,3.80
2023-05-14T14:08:54.437Z,4.03
2023-05-14T14:11:21.235Z,3.67
2023-05-14T14:13:48.101Z,3.47
2023-05-14T14:16:15.168Z,3.78
2023-05-14T14:18:43.503Z,4.03
2023-05-14T14:21:10.600Z,4.15
2023-05-14T14:23:37.473Z,3.80
2023-05-14T14:26:04.318Z,3.78
2023-05-14T14:28:31.401Z,3.10
2023-05-14T14:30:58.314Z,4.18
2023-05-14T14:33:25.313Z,4.38
2023-05-14T14:35:52.079Z,4.47
2023-05-14T14:38:19.111Z,4.72
2023-05-14T14:40:46.462Z,4.60
2023-05-14T14:43:13.296Z,5.00
2023-05-14T14:45:40.241Z,4.53
2023-05-14T14:48:28.829Z,5.70
2023-05-14T14:50:55.953Z,4.53
2023-05-14T14:53:22.989Z,5.28
2023-05-14T14:55:50.194Z,5.15
2023-05-14T14:58:18.266Z,4.22
2023-05-14T15:00:45.770Z,4.83
2023-05-14T15:03:12.883Z,4.43
2023-05-14T15:05:40.123Z,5.10
2023-05-14T15:08:07.011Z,5.20
2023-05-14T15:10:37.977Z,5.20
2023-05-14T15:13:06.031Z,5.13
2023-05-14T15:15:33.613Z,5.20
2023-05-14T15:18:00.706Z,4.82
2023-05-14T15:20:27.606Z,4.28
2023-05-14T15:22:54.639Z,4.40
2023-05-14T15:25:21.702Z,4.40
2023-05-14T15:27:49.004Z,4.70
2023-05-14T15:30:16.182Z,4.20
2023-05-14T15:32:43.313Z,5.13
2023-05-14T15:35:10.111Z,4.65
2023-05-14T15:37:41.133Z,4.60
2023-05-14T15:40:09.142Z,3.83
2023-05-14T15:42:40.173Z,3.63
2023-05-14T15:45:07.371Z,3.47
2023-05-14T15:47:34.183Z,3.55
2023-05-14T15:50:01.244Z,2.90
2023-05-14T15:52:28.052Z,2.92
2023-05-14T15:54:56.220Z,3.60
2023-05-14T15:57:23.476Z,3.65
2023-05-14T15:59:50.394Z,3.97
2023-05-14T16:02:17.185Z,3.30
2023-05-14T16:04:46.655Z,3.47
2023-05-14T16:07:13.411Z,3.53
2023-05-14T16:09:40.309Z,3.50
2023-05-14T16:12:07.802Z,3.40
2023-05-14T16:14:35.137Z,3.87
2023-05-14T16:17:02.259Z,3.75
2023-05-14T16:19:29.207Z,4.10
2023-05-14T16:21:56.110Z,4.28
2023-05-14T16:24:22.964Z,4.40
2023-05-14T16:26:49.836Z,4.07
2023-05-14T16:29:16.718Z,4.60
2023-05-14T16:31:43.651Z,4.13
2023-05-14T16:34:10.434Z,4.75
2023-05-14T16:36:37.507Z,4.15
2023-05-14T16:39:08.062Z,4.20
2023-05-14T16:41:35.901Z,3.60
2023-05-14T16:44:02.661Z,3.67
2023-05-14T16:46:30.501Z,3.83
2023-05-14T16:48:57.360Z,4.00
2023-05-14T16:51:24.118Z,3.90
2023-05-14T16:53:51.966Z,3.45
2023-05-14T16:56:18.979Z,3.88
2023-05-14T16:58:45.738Z,4.10
2023-05-14T17:01:12.540Z,3.60
2023-05-14T17:03:39.323Z,4.30
2023-05-14T17:06:06.627Z,3.63
2023-05-14T17:08:35.649Z,3.63
2023-05-14T17:11:05.699Z,3.95
2023-05-14T17:13:33.195Z,3.95
2023-05-14T17:16:00.685Z,4.10
2023-05-14T17:18:27.536Z,3.90
2023-05-14T17:20:54.309Z,4.07
2023-05-14T17:23:21.119Z,4.03
2023-05-14T17:25:47.928Z,4.07
2023-05-14T17:28:14.876Z,4.27
2023-05-14T17:30:41.711Z,3.95
2023-05-14T17:33:08.700Z,3.60
2023-05-14T17:35:36.543Z,3.58
2023-05-14T17:38:03.639Z,4.07
2023-05-14T17:40:30.488Z,3.50
2023-05-14T17:42:57.286Z,4.55
2023-05-14T17:45:24.272Z,4.20
2023-05-14T17:47:51.562Z,3.65
2023-05-14T17:50:18.973Z,4.32
2023-05-14T17:52:46.230Z,4.10
2023-05-14T17:55:13.242Z,4.50
2023-05-14T17:57:40.254Z,4.45
2023-05-14T18:00:08.284Z,4.22
2023-05-14T18:02:35.213Z,4.22
2023-05-14T18:05:02.913Z,4.77
2023-05-14T18:07:34.425Z,4.35
2023-05-14T18:10:01.316Z,4.30
2023-05-14T18:12:28.125Z,5.32
2023-05-14T18:14:54.940Z,4.78
2023-05-14T18:17:21.757Z,4.60
2023-05-14T18:19:48.557Z,4.78
2023-05-14T18:22:15.819Z,4.38
2023-05-14T18:24:44.305Z,5.43
2023-05-14T18:27:11.183Z,5.50
2023-05-14T18:29:37.978Z,5.03
2023-05-14T18:32:05.293Z,5.35
2023-05-14T18:34:32.095Z,5.68
2023-05-14T18:36:58.829Z,6.45
2023-05-14T18:39:25.789Z,8.40
2023-05-14T18:41:52.833Z,8.90
2023-05-14T18:44:19.626Z,9.43
2023-05-14T18:46:46.476Z,9.95
2023-05-14T18:49:13.311Z,8.20
2023-05-14T18:51:40.029Z,6.90
2023-05-14T18:54:06.853Z,6.63
2023-05-14T18:56:34.006Z,6.07
2023-05-14T18:59:00.824Z,5.63
2023-05-14T19:01:28.281Z,6.72
2023-05-14T19:03:55.359Z,6.25
2023-05-14T19:06:22.263Z,6.87
2023-05-14T19:08:49.123Z,6.63
2023-05-14T19:11:16.381Z,7.15
2023-05-14T19:13:46.700Z,7.95
2023-05-14T19:16:13.758Z,8.73
2023-05-14T19:18:40.672Z,9.90
2023-05-14T19:21:07.449Z,10.45
2023-05-14T19:23:34.282Z,11.55
2023-05-14T19:26:01.307Z,10.30
2023-05-14T19:28:28.121Z,10.23
2023-05-14T19:30:54.930Z,10.00
2023-05-14T19:33:21.702Z,9.32
2023-05-14T19:35:48.506Z,9.57
2023-05-14T19:38:15.453Z,9.15
2023-05-14T19:40:43.666Z,9.55
2023-05-14T19:43:11.965Z,10.30
2023-05-14T19:45:39.452Z,10.10
2023-05-14T19:48:06.898Z,10.50
2023-05-14T19:50:33.961Z,11.15
2023-05-14T19:53:01.222Z,11.40
2023-05-14T19:55:28.044Z,11.33
2023-05-14T19:57:54.857Z,12.23
2023-05-14T20:00:22.922Z,11.70
2023-05-14T20:02:49.827Z,12.05
2023-05-14T20:05:16.901Z,11.82
2023-05-14T20:07:43.914Z,12.13
2023-05-14T20:10:12.588Z,12.10
2023-05-14T20:12:39.601Z,12.00
2023-05-14T20:15:06.911Z,12.27
2023-05-14T20:17:33.829Z,12.20
2023-05-14T20:20:01.541Z,11.93
2023-05-14T20:22:28.446Z,12.38
2023-05-14T20:24:55.807Z,11.65
2023-05-14T20:27:22.619Z,12.38
2023-05-14T20:29:51.510Z,11.82
2023-05-14T20:32:18.361Z,11.93
2023-05-14T20:34:45.280Z,12.25
2023-05-14T20:37:12.267Z,12.15
2023-05-14T20:39:39.180Z,12.30
2023-05-14T20:42:06.287Z,12.23
2023-05-14T20:44:33.114Z,12.20
2023-05-14T20:46:59.969Z,12.30
2023-05-14T20:49:26.912Z,12.32
2023-05-14T20:51:53.860Z,12.27
2023-05-14T20:54:21.004Z,12.57
2023-05-14T20:56:47.921Z,12.40
2023-05-14T20:59:14.731Z,12.70
2023-05-14T21:01:42.784Z,12.55
2023-05-14T21:04:09.750Z,12.48
2023-05-14T21:06:36.816Z,12.57
2023-05-14T21:09:03.660Z,12.50
2023-05-14T21:11:30.521Z,12.48
2023-05-14T21:13:57.846Z,12.27
2023-05-14T21:16:24.764Z,12.63
2023-05-14T21:18:51.667Z,12.40
2023-05-14T21:21:21.413Z,12.27
2023-05-14T21:23:48.294Z,12.35
2023-05-14T21:26:15.108Z,12.23
2023-05-14T21:28:42.001Z,12.27
2023-05-14T21:31:08.833Z,12.45
2023-05-14T21:33:35.682Z,12.33
2023-05-14T21:36:02.502Z,12.05
2023-05-14T21:38:29.476Z,12.20
2023-05-14T21:40:56.414Z,12.32
2023-05-14T21:43:23.264Z,13.38
2023-05-14T21:45:50.040Z,12.90
2023-05-14T21:48:17.012Z,13.05
2023-05-14T21:50:43.987Z,12.20
2023-05-14T21:53:10.786Z,13.18
2023-05-14T21:55:37.619Z,12.85
2023-05-14T21:58:04.404Z,13.50
2023-05-14T22:00:31.903Z,13.05
2023-05-14T22:02:59.040Z,13.65
2023-05-14T22:05:26.037Z,13.07
2023-05-14T22:07:53.388Z,12.88
2023-05-14T22:10:20.242Z,13.27
2023-05-14T22:12:47.070Z,12.95
2023-05-14T22:15:13.857Z,12.32
2023-05-14T22:17:41.138Z,13.45
2023-05-14T22:20:10.157Z,12.77
2023-05-14T22:22:37.030Z,13.30
2023-05-14T22:25:04.523Z,13.30
2023-05-14T22:27:31.673Z,13.82
2023-05-14T22:29:58.823Z,13.00
2023-05-14T22:32:25.993Z,13.73
2023-05-14T22:34:52.869Z,13.00
2023-05-14T22:37:19.693Z,13.23
2023-05-14T22:39:46.544Z,12.35
2023-05-14T22:42:13.593Z,13.88
2023-05-14T22:44:40.486Z,13.88
2023-05-14T22:47:07.379Z,13.37
2023-05-14T22:49:34.230Z,14.10
2023-05-14T22:52:01.397Z,13.82
2023-05-14T22:54:28.271Z,14.18
2023-05-14T22:56:55.149Z,14.48
2023-05-14T22:59:23.688Z,14.10
2023-05-14T23:01:51.209Z,14.35
2023-05-14T23:04:18.130Z,14.38
2023-05-14T23:06:45.004Z,14.93
2023-05-14T23:09:11.801Z,15.05
2023-05-14T23:11:38.623Z,14.30
2023-05-14T23:14:05.579Z,14.93
2023-05-14T23:16:32.363Z,15.82
2023-05-14T23:18:59.215Z,14.05
2023-05-14T23:21:26.205Z,14.48
2023-05-14T23:23:52.946Z,15.27
2023-05-14T23:26:19.757Z,14.63
2023-05-14T23:28:47.530Z,14.93
2023-05-14T23:31:14.401Z,14.27
2023-05-14T23:33:41.239Z,13.82
2023-05-14T23:36:08.477Z,15.50
2023-05-14T23:38:35.580Z,14.70
2023-05-14T23:41:02.403Z,14.05
2023-05-14T23:43:29.300Z,14.63
2023-05-14T23:45:56.150Z,15.55
2023-05-14T23:48:23.113Z,14.70
2023-05-14T23:50:50.076Z,15.32
2023-05-14T23:53:17.197Z,14.95
2023-05-14T23:55:43.997Z,15.10
2023-05-14T23:58:10.742Z,15.02
